Puerto Santa Cruz, Argentina
Current Conditions -  °F | °C
As of 5:14 PM on Friday 19 Dec 2014 (Local Time) from SAWG Reporting Station
Rain Showers Rain Showers  
Wind Chill: 42°   Ceiling: Unl
Heat Index: 48°   Visibility: 6mi
Dew Point: 23°   Wind: 18mph
Humidity: 37%   Direction: 270°W
Pressure: 29.06"   Gusts: NA
Location:  50.02°S, 68.52°W
Report Text: SAWG 192014Z 27016KT 9999 SHRA FEW030TCU SCT035 09/M05 Q0984
Loading
Personal Weather Stations






























Interactive Weather Map New forecast layout! Learn more

10-Day Weather Forecast

Advertisements
Track Severe Weather on mobile